Time;durP1;ratioP1;P1;durP2;ratioP2;P2;SDS_P1;SDS_P2;PMS_P1;PMS_P2;Temp;Humidity;BMP_temperature;BMP_pressure;BME280_temperature;BME280_humidity;BME280_pressure;Samples;Min_cycle;Max_cycle;Signal;HPM_P1;HPM_P2
2023/10/30 00:00:16;;;;;;;;;;;19.80;53.80;;;;;;5094674;28;19939;-53
2023/10/30 00:02:43;;;;;;;;;;;19.80;54.40;;;;;;5085892;28;19920;-49
2023/10/30 00:05:12;;;;;;;;;;;19.80;53.80;;;;;;5089136;28;20399;-48
2023/10/30 00:07:38;;;;;;;;;;;19.80;53.80;;;;;;5086784;28;19934;-50
2023/10/30 00:10:06;;;;;;;;;;;19.80;53.80;;;;;;5090553;28;19959;-53
2023/10/30 00:12:33;;;;;;;;;;;19.80;53.80;;;;;;5084320;28;20007;-48
2023/10/30 00:15:02;;;;;;;;;;;19.80;53.80;;;;;;5082317;28;19928;-51
2023/10/30 00:17:30;;;;;;;;;;;19.80;53.80;;;;;;5082974;28;19932;-48
2023/10/30 00:19:56;;;;;;;;;;;19.80;53.80;;;;;;5084122;28;19939;-48
2023/10/30 00:22:25;;;;;;;;;;;19.80;54.40;;;;;;5079704;28;19981;-53
2023/10/30 00:24:51;;;;;;;;;;;19.80;53.80;;;;;;5082100;28;19920;-55
2023/10/30 00:27:18;;;;;;;;;;;19.80;53.80;;;;;;5098428;28;19924;-55
2023/10/30 00:29:45;;;;;;;;;;;19.80;53.90;;;;;;5088906;28;19928;-48
2023/10/30 00:32:12;;;;;;;;;;;19.80;53.80;;;;;;5083163;28;19924;-52
2023/10/30 00:34:39;;;;;;;;;;;19.80;53.80;;;;;;5081381;28;19998;-50
2023/10/30 00:37:05;;;;;;;;;;;19.80;53.90;;;;;;5088800;28;19958;-56
2023/10/30 00:39:34;;;;;;;;;;;19.80;53.80;;;;;;5085619;28;19927;-48
2023/10/30 00:42:00;;;;;;;;;;;19.80;53.90;;;;;;5084810;28;19924;-50
2023/10/30 00:44:27;;;;;;;;;;;19.80;53.80;;;;;;5101994;28;19966;-50
2023/10/30 00:46:54;;;;;;;;;;;19.80;53.90;;;;;;5090734;28;19943;-52
2023/10/30 00:49:21;;;;;;;;;;;19.80;53.90;;;;;;5098714;28;19977;-51
2023/10/30 00:51:47;;;;;;;;;;;19.90;54.00;;;;;;5087355;28;19927;-51
2023/10/30 00:54:14;;;;;;;;;;;19.80;53.90;;;;;;5109141;28;20051;-51
2023/10/30 00:56:42;;;;;;;;;;;19.80;53.90;;;;;;5104965;28;19924;-50
2023/10/30 00:59:09;;;;;;;;;;;19.80;53.90;;;;;;5091109;28;19969;-49
2023/10/30 01:01:36;;;;;;;;;;;19.90;54.00;;;;;;5078214;28;19936;-47
2023/10/30 01:04:03;;;;;;;;;;;19.80;53.90;;;;;;5091238;28;19969;-51
2023/10/30 01:06:29;;;;;;;;;;;19.90;54.00;;;;;;5097863;28;19928;-51
2023/10/30 01:08:56;;;;;;;;;;;19.90;54.00;;;;;;5092129;28;19931;-49
2023/10/30 01:11:23;;;;;;;;;;;19.90;54.00;;;;;;5087980;28;19969;-52
2023/10/30 01:13:51;;;;;;;;;;;19.90;54.00;;;;;;5090045;28;19931;-50
2023/10/30 01:16:18;;;;;;;;;;;19.80;53.90;;;;;;5081359;28;20072;-52
2023/10/30 01:18:45;;;;;;;;;;;19.90;54.00;;;;;;5080948;28;19923;-52
2023/10/30 01:21:12;;;;;;;;;;;19.90;54.00;;;;;;5100694;28;19924;-52
2023/10/30 01:23:39;;;;;;;;;;;19.90;54.00;;;;;;5090457;28;19928;-48
2023/10/30 01:26:05;;;;;;;;;;;19.90;54.00;;;;;;5096395;28;19928;-52
2023/10/30 01:28:32;;;;;;;;;;;19.90;54.10;;;;;;5079109;28;19928;-51
2023/10/30 01:31:00;;;;;;;;;;;19.90;54.00;;;;;;5086894;28;19923;-48
2023/10/30 01:33:27;;;;;;;;;;;19.90;54.00;;;;;;5081860;28;19924;-54
2023/10/30 01:35:55;;;;;;;;;;;19.90;54.00;;;;;;5086113;28;20319;-48
2023/10/30 01:38:22;;;;;;;;;;;19.90;54.00;;;;;;5078527;28;19930;-50
2023/10/30 01:40:49;;;;;;;;;;;19.90;54.00;;;;;;5079657;28;19924;-51
2023/10/30 01:43:15;;;;;;;;;;;19.90;54.00;;;;;;5083889;28;19967;-54
2023/10/30 01:45:42;;;;;;;;;;;19.90;54.00;;;;;;5104114;28;19931;-49
2023/10/30 01:48:10;;;;;;;;;;;19.80;53.90;;;;;;5085345;28;20281;-52
2023/10/30 01:50:37;;;;;;;;;;;19.90;54.00;;;;;;5092287;28;19973;-53
2023/10/30 01:53:04;;;;;;;;;;;19.90;54.00;;;;;;5080551;28;20007;-49
2023/10/30 01:55:31;;;;;;;;;;;19.90;54.00;;;;;;5083874;28;19988;-50
2023/10/30 01:57:58;;;;;;;;;;;19.80;54.00;;;;;;5084800;28;19931;-52
2023/10/30 02:00:24;;;;;;;;;;;19.90;54.00;;;;;;5106191;28;19924;-53
2023/10/30 02:02:51;;;;;;;;;;;19.90;54.00;;;;;;5086874;28;19928;-48
2023/10/30 02:05:20;;;;;;;;;;;19.90;54.00;;;;;;5089078;28;19973;-54
2023/10/30 02:07:47;;;;;;;;;;;19.90;54.10;;;;;;5102939;28;19978;-52
2023/10/30 02:10:13;;;;;;;;;;;19.90;54.10;;;;;;5095234;28;19928;-49
2023/10/30 02:12:42;;;;;;;;;;;19.90;54.10;;;;;;5083725;28;19928;-50
2023/10/30 02:15:09;;;;;;;;;;;19.80;54.00;;;;;;5101803;28;19928;-53
2023/10/30 02:17:36;;;;;;;;;;;19.90;54.10;;;;;;5084001;28;19958;-53
2023/10/30 02:20:02;;;;;;;;;;;19.90;54.10;;;;;;5099535;28;19962;-51
2023/10/30 02:22:31;;;;;;;;;;;19.90;54.10;;;;;;5086196;28;19924;-49
2023/10/30 02:24:57;;;;;;;;;;;19.90;54.10;;;;;;5084955;28;19936;-52
2023/10/30 02:27:25;;;;;;;;;;;19.90;54.10;;;;;;5083413;28;20445;-53
2023/10/30 02:29:52;;;;;;;;;;;19.90;54.10;;;;;;5083859;28;19935;-49
2023/10/30 02:32:19;;;;;;;;;;;19.90;54.10;;;;;;5088997;28;19947;-53
2023/10/30 02:34:46;;;;;;;;;;;19.90;54.10;;;;;;5082346;28;19923;-56
2023/10/30 02:37:12;;;;;;;;;;;19.90;54.10;;;;;;5080562;28;19924;-47
2023/10/30 02:39:40;;;;;;;;;;;19.90;54.10;;;;;;5099685;28;19928;-53
2023/10/30 02:42:08;;;;;;;;;;;19.90;54.10;;;;;;5085774;28;19931;-50
2023/10/30 02:44:36;;;;;;;;;;;19.90;54.10;;;;;;5084530;28;20370;-50
2023/10/30 02:47:03;;;;;;;;;;;19.90;54.10;;;;;;5084967;28;19962;-55
2023/10/30 02:49:30;;;;;;;;;;;19.90;54.10;;;;;;5084243;28;20389;-54
2023/10/30 02:51:57;;;;;;;;;;;19.90;54.10;;;;;;5092213;28;19969;-51
2023/10/30 02:54:24;;;;;;;;;;;19.90;54.10;;;;;;5096199;28;19924;-54
2023/10/30 02:56:50;;;;;;;;;;;19.90;54.10;;;;;;5082518;28;19928;-54
2023/10/30 02:59:17;;;;;;;;;;;19.90;54.10;;;;;;5082890;28;19923;-56
2023/10/30 03:01:45;;;;;;;;;;;19.90;54.20;;;;;;5111990;28;19927;-50
2023/10/30 03:04:13;;;;;;;;;;;19.90;54.10;;;;;;5088965;28;19969;-52
2023/10/30 03:06:40;;;;;;;;;;;19.90;54.10;;;;;;5100792;28;19932;-55
2023/10/30 03:09:06;;;;;;;;;;;19.90;54.10;;;;;;5084207;28;20308;-55
2023/10/30 03:11:33;;;;;;;;;;;19.90;54.10;;;;;;5086153;28;19969;-50
2023/10/30 03:14:00;;;;;;;;;;;19.90;54.10;;;;;;5081860;28;19928;-53
2023/10/30 03:16:27;;;;;;;;;;;19.90;54.10;;;;;;5090177;28;19924;-54
2023/10/30 03:18:55;;;;;;;;;;;19.90;54.10;;;;;;5103196;28;19940;-55
2023/10/30 03:21:22;;;;;;;;;;;19.90;54.10;;;;;;5084065;28;19924;-56
2023/10/30 03:23:48;;;;;;;;;;;19.90;54.10;;;;;;5080367;28;19924;-52
2023/10/30 03:26:16;;;;;;;;;;;19.90;54.10;;;;;;5080412;28;19932;-54
2023/10/30 03:28:43;;;;;;;;;;;19.90;54.10;;;;;;5087945;28;19924;-52
2023/10/30 03:31:10;;;;;;;;;;;19.90;54.10;;;;;;5100473;28;19932;-53
2023/10/30 03:33:37;;;;;;;;;;;19.90;54.10;;;;;;5085020;28;19963;-49
2023/10/30 03:36:05;;;;;;;;;;;19.90;54.10;;;;;;5100557;28;19924;-52
2023/10/30 03:38:32;;;;;;;;;;;19.90;54.10;;;;;;5084690;28;20395;-53
2023/10/30 03:40:59;;;;;;;;;;;19.90;54.10;;;;;;5082319;28;19924;-52
2023/10/30 03:43:26;;;;;;;;;;;19.90;54.10;;;;;;5080956;28;19928;-57
2023/10/30 03:45:53;;;;;;;;;;;19.90;54.10;;;;;;5102772;28;19985;-49
2023/10/30 03:48:19;;;;;;;;;;;19.90;54.20;;;;;;5086963;28;19928;-50
2023/10/30 03:50:48;;;;;;;;;;;19.90;54.10;;;;;;5100137;28;19928;-51
2023/10/30 03:53:16;;;;;;;;;;;19.90;54.10;;;;;;5085359;28;19936;-53
2023/10/30 03:55:43;;;;;;;;;;;19.90;54.10;;;;;;5081518;28;19973;-49
2023/10/30 03:58:10;;;;;;;;;;;19.90;54.10;;;;;;5086934;28;20129;-51
2023/10/30 04:00:37;;;;;;;;;;;19.90;54.10;;;;;;5096406;28;19935;-50
2023/10/30 04:03:03;;;;;;;;;;;19.90;54.10;;;;;;5087829;28;19938;-50
2023/10/30 04:05:30;;;;;;;;;;;19.90;54.10;;;;;;5082142;28;19993;-49
2023/10/30 04:07:57;;;;;;;;;;;19.90;54.10;;;;;;5082770;28;19974;-47
2023/10/30 04:10:25;;;;;;;;;;;19.90;54.10;;;;;;5087005;28;19998;-49
2023/10/30 04:12:52;;;;;;;;;;;19.90;54.10;;;;;;5074964;28;19931;-49
2023/10/30 04:15:19;;;;;;;;;;;19.90;54.10;;;;;;5090691;28;19973;-50
2023/10/30 04:17:46;;;;;;;;;;;19.90;54.10;;;;;;5098129;28;20221;-48
2023/10/30 04:20:13;;;;;;;;;;;19.90;54.10;;;;;;5090736;28;19924;-51
2023/10/30 04:22:39;;;;;;;;;;;19.90;54.10;;;;;;5079806;28;19973;-47
2023/10/30 04:25:07;;;;;;;;;;;19.90;54.10;;;;;;5081638;28;19928;-49
2023/10/30 04:27:35;;;;;;;;;;;19.90;54.10;;;;;;5086692;28;19924;-49
2023/10/30 04:30:02;;;;;;;;;;;19.90;54.10;;;;;;5083082;28;19928;-48
2023/10/30 04:32:29;;;;;;;;;;;19.90;54.10;;;;;;5085687;28;19924;-46
2023/10/30 04:34:56;;;;;;;;;;;19.90;54.10;;;;;;5087424;28;19924;-48
2023/10/30 04:37:23;;;;;;;;;;;19.90;54.10;;;;;;5102180;28;20018;-52
2023/10/30 04:39:49;;;;;;;;;;;19.90;54.10;;;;;;5083825;28;19924;-51
2023/10/30 04:42:16;;;;;;;;;;;19.90;54.10;;;;;;5084753;28;19935;-50
2023/10/30 04:44:44;;;;;;;;;;;19.90;54.10;;;;;;5084922;28;19959;-45
2023/10/30 04:47:11;;;;;;;;;;;19.90;54.10;;;;;;5085623;28;19935;-47
2023/10/30 04:49:38;;;;;;;;;;;19.90;54.10;;;;;;5082400;28;19927;-50
2023/10/30 04:52:05;;;;;;;;;;;19.90;54.10;;;;;;5079362;28;19931;-53
2023/10/30 04:54:32;;;;;;;;;;;19.90;54.70;;;;;;5101308;28;19974;-50
2023/10/30 04:56:58;;;;;;;;;;;19.90;54.10;;;;;;5084958;28;19924;-46
2023/10/30 04:59:25;;;;;;;;;;;19.90;54.10;;;;;;5091181;28;19973;-51
2023/10/30 05:01:53;;;;;;;;;;;19.90;54.10;;;;;;5103820;28;19935;-48
2023/10/30 05:04:20;;;;;;;;;;;19.90;54.10;;;;;;5081742;28;19924;-47
2023/10/30 05:06:48;;;;;;;;;;;19.90;54.10;;;;;;5084169;28;19973;-51
2023/10/30 05:09:14;;;;;;;;;;;19.90;54.10;;;;;;5101720;28;19928;-52
2023/10/30 05:11:41;;;;;;;;;;;19.90;54.10;;;;;;5083923;28;20284;-48
2023/10/30 05:14:08;;;;;;;;;;;19.90;54.10;;;;;;5087939;28;19973;-48
2023/10/30 05:16:35;;;;;;;;;;;19.90;54.10;;;;;;5098672;28;19930;-47
2023/10/30 05:19:03;;;;;;;;;;;19.90;54.10;;;;;;5106166;28;19932;-49
2023/10/30 05:21:30;;;;;;;;;;;19.90;54.10;;;;;;5102257;28;19930;-50
2023/10/30 05:23:57;;;;;;;;;;;19.90;54.10;;;;;;5109068;28;19923;-51
2023/10/30 05:26:23;;;;;;;;;;;19.90;54.10;;;;;;5086455;28;19941;-52
2023/10/30 05:28:50;;;;;;;;;;;19.90;54.10;;;;;;5082458;28;20372;-51
2023/10/30 05:31:17;;;;;;;;;;;19.90;54.10;;;;;;5107707;28;19934;-51
2023/10/30 05:33:44;;;;;;;;;;;19.90;54.10;;;;;;5094060;28;19930;-50
2023/10/30 05:36:12;;;;;;;;;;;19.90;54.10;;;;;;5084840;28;19927;-49
2023/10/30 05:38:39;;;;;;;;;;;19.90;54.10;;;;;;5084319;28;19932;-50
2023/10/30 05:41:05;;;;;;;;;;;19.90;54.10;;;;;;5089606;28;19924;-51
2023/10/30 05:43:32;;;;;;;;;;;19.90;54.10;;;;;;5087891;28;19928;-51
2023/10/30 05:45:59;;;;;;;;;;;19.90;54.10;;;;;;5091699;28;20414;-50
2023/10/30 05:48:26;;;;;;;;;;;20.00;54.20;;;;;;5083844;28;19931;-54
2023/10/30 05:50:52;;;;;;;;;;;19.90;54.10;;;;;;5089046;28;19935;-48
2023/10/30 05:53:20;;;;;;;;;;;20.00;54.20;;;;;;5088799;28;19972;-50
2023/10/30 05:55:47;;;;;;;;;;;20.00;54.20;;;;;;5104660;28;19931;-48
2023/10/30 05:58:14;;;;;;;;;;;20.00;54.20;;;;;;5101489;28;19924;-49
2023/10/30 06:00:41;;;;;;;;;;;19.90;54.10;;;;;;5088351;28;19924;-50
2023/10/30 06:03:07;;;;;;;;;;;19.90;54.10;;;;;;5084420;28;19924;-52
2023/10/30 06:05:34;;;;;;;;;;;20.00;54.20;;;;;;5084267;28;19925;-49
2023/10/30 06:08:01;;;;;;;;;;;20.00;54.20;;;;;;5093152;28;19924;-54
2023/10/30 06:10:29;;;;;;;;;;;20.00;54.20;;;;;;5094231;28;19924;-55
2023/10/30 06:12:56;;;;;;;;;;;20.00;54.10;;;;;;5079114;28;19934;-52
2023/10/30 06:15:23;;;;;;;;;;;19.90;54.10;;;;;;5086625;28;19927;-50
2023/10/30 06:17:49;;;;;;;;;;;20.00;54.20;;;;;;5093440;28;19947;-55
2023/10/30 06:20:16;;;;;;;;;;;19.90;54.10;;;;;;5088859;28;19932;-55
2023/10/30 06:22:43;;;;;;;;;;;20.00;54.20;;;;;;5087321;28;19928;-52
2023/10/30 06:25:10;;;;;;;;;;;20.00;54.20;;;;;;5091567;28;19985;-54
2023/10/30 06:27:40;;;;;;;;;;;20.00;54.20;;;;;;5081233;28;19928;-52
2023/10/30 06:30:07;;;;;;;;;;;20.00;54.20;;;;;;5077779;28;19934;-55
2023/10/30 06:32:35;;;;;;;;;;;19.90;54.10;;;;;;5090312;28;19955;-52
2023/10/30 06:35:02;;;;;;;;;;;20.00;54.20;;;;;;5087089;28;19923;-50
2023/10/30 06:37:29;;;;;;;;;;;20.00;54.20;;;;;;5086555;28;19931;-51
2023/10/30 06:39:56;;;;;;;;;;;20.00;54.30;;;;;;5105984;28;20178;-51
2023/10/30 06:42:22;;;;;;;;;;;20.00;54.20;;;;;;5086340;28;19952;-52
2023/10/30 06:44:51;;;;;;;;;;;20.00;54.30;;;;;;5089706;28;19951;-52
2023/10/30 06:47:18;;;;;;;;;;;20.00;54.30;;;;;;5089662;28;19924;-53
2023/10/30 06:49:45;;;;;;;;;;;20.00;54.30;;;;;;5084114;28;19924;-52
2023/10/30 06:52:12;;;;;;;;;;;20.00;54.30;;;;;;5086386;28;19928;-54
2023/10/30 06:54:39;;;;;;;;;;;20.00;54.30;;;;;;5084376;28;19973;-53
2023/10/30 06:57:06;;;;;;;;;;;20.00;54.30;;;;;;5086709;28;20043;-53
2023/10/30 06:59:32;;;;;;;;;;;20.00;54.30;;;;;;5086924;28;19938;-50
2023/10/30 07:02:02;;;;;;;;;;;20.00;54.30;;;;;;5089226;28;19924;-50
2023/10/30 07:04:30;;;;;;;;;;;20.00;54.30;;;;;;5084453;28;19995;-48
2023/10/30 07:06:56;;;;;;;;;;;20.00;54.30;;;;;;5084332;28;20022;-53
2023/10/30 07:09:23;;;;;;;;;;;20.00;54.30;;;;;;5083903;28;19928;-55
2023/10/30 07:11:50;;;;;;;;;;;20.00;54.30;;;;;;5101938;28;19924;-51
2023/10/30 07:14:17;;;;;;;;;;;20.00;54.30;;;;;;5084466;28;19927;-60
2023/10/30 07:16:44;;;;;;;;;;;20.00;54.30;;;;;;5083111;28;19935;-58
2023/10/30 07:19:12;;;;;;;;;;;20.00;53.30;;;;;;5085474;28;19989;-59
2023/10/30 07:21:39;;;;;;;;;;;19.90;51.70;;;;;;5098720;28;19928;-58
2023/10/30 07:24:06;;;;;;;;;;;19.90;51.10;;;;;;5084522;28;19928;-59
2023/10/30 07:26:33;;;;;;;;;;;19.80;50.70;;;;;;5090415;28;19927;-58
2023/10/30 07:28:59;;;;;;;;;;;19.70;50.30;;;;;;5100774;28;19924;-58
2023/10/30 07:31:26;;;;;;;;;;;19.60;50.20;;;;;;5100189;28;19924;-59
2023/10/30 07:33:53;;;;;;;;;;;19.50;50.20;;;;;;5105468;28;19973;-62
2023/10/30 07:36:21;;;;;;;;;;;19.50;50.30;;;;;;5083304;28;19931;-63
2023/10/30 07:38:48;;;;;;;;;;;19.40;50.30;;;;;;5084984;28;20170;-47
2023/10/30 07:41:15;;;;;;;;;;;19.30;50.70;;;;;;5085975;28;19932;-54
2023/10/30 07:43:42;;;;;;;;;;;19.20;51.20;;;;;;5100377;28;19924;-50
2023/10/30 07:46:12;;;;;;;;;;;19.20;51.60;;;;;;5101587;28;19946;-55
2023/10/30 07:48:39;;;;;;;;;;;19.20;51.90;;;;;;5077042;28;19924;-54
2023/10/30 07:51:06;;;;;;;;;;;19.20;52.10;;;;;;5086126;28;20009;-55
2023/10/30 07:53:34;;;;;;;;;;;19.20;52.20;;;;;;5085904;28;19924;-49
2023/10/30 07:56:01;;;;;;;;;;;19.30;52.40;;;;;;5101629;28;19924;-57
2023/10/30 07:58:28;;;;;;;;;;;19.30;53.10;;;;;;5095050;28;19927;-52
2023/10/30 08:00:54;;;;;;;;;;;19.40;52.60;;;;;;5087521;28;19931;-53
2023/10/30 08:03:21;;;;;;;;;;;19.40;52.70;;;;;;5083966;28;19931;-55
2023/10/30 08:05:48;;;;;;;;;;;19.40;52.70;;;;;;5082950;28;19989;-53
2023/10/30 08:08:17;;;;;;;;;;;19.50;52.80;;;;;;5082971;28;19932;-48
2023/10/30 08:10:47;;;;;;;;;;;19.50;52.80;;;;;;5083834;28;19992;-52
2023/10/30 08:13:14;;;;;;;;;;;19.50;52.90;;;;;;5079672;28;19924;-54
2023/10/30 08:15:41;;;;;;;;;;;19.50;52.90;;;;;;5087212;28;19961;-53
2023/10/30 08:18:08;;;;;;;;;;;19.50;53.00;;;;;;5086246;28;20511;-50
2023/10/30 08:20:34;;;;;;;;;;;19.60;53.10;;;;;;5078307;28;19932;-53
2023/10/30 08:23:01;;;;;;;;;;;19.60;53.20;;;;;;5088450;28;19924;-50
2023/10/30 08:25:28;;;;;;;;;;;19.60;53.20;;;;;;5101962;28;19939;-51
2023/10/30 08:27:58;;;;;;;;;;;19.70;53.30;;;;;;5104995;28;20058;-56
2023/10/30 08:30:25;;;;;;;;;;;19.70;53.30;;;;;;5093701;28;19924;-55
2023/10/30 08:32:52;;;;;;;;;;;19.70;53.40;;;;;;5084137;28;19924;-53
2023/10/30 08:35:19;;;;;;;;;;;19.70;53.40;;;;;;5104417;28;19925;-55
2023/10/30 08:37:45;;;;;;;;;;;19.80;53.40;;;;;;5078838;28;19924;-56
2023/10/30 08:40:12;;;;;;;;;;;19.80;53.40;;;;;;5106345;28;19930;-57
2023/10/30 08:42:39;;;;;;;;;;;19.80;54.00;;;;;;5091135;28;20004;-52
2023/10/30 08:45:08;;;;;;;;;;;19.80;53.50;;;;;;5084563;28;19924;-53
2023/10/30 08:47:36;;;;;;;;;;;19.80;53.40;;;;;;5088429;28;19924;-53
2023/10/30 08:50:02;;;;;;;;;;;19.80;53.50;;;;;;5100435;28;19927;-60
2023/10/30 08:52:29;;;;;;;;;;;19.80;53.40;;;;;;5090201;28;19953;-51
2023/10/30 08:54:56;;;;;;;;;;;19.80;53.50;;;;;;5084948;28;19928;-56
2023/10/30 08:57:23;;;;;;;;;;;19.90;53.50;;;;;;5090071;28;19928;-54
2023/10/30 08:59:50;;;;;;;;;;;19.90;53.50;;;;;;5089370;28;19935;-57
2023/10/30 09:02:18;;;;;;;;;;;19.90;53.50;;;;;;5083956;28;19924;-52
2023/10/30 09:04:45;;;;;;;;;;;19.90;53.50;;;;;;5107446;28;19954;-52
2023/10/30 09:07:12;;;;;;;;;;;19.90;53.60;;;;;;5091825;28;19985;-54
2023/10/30 09:09:39;;;;;;;;;;;19.90;53.70;;;;;;5089549;28;20012;-51
2023/10/30 09:12:06;;;;;;;;;;;20.00;53.80;;;;;;5088542;28;19990;-48
2023/10/30 09:14:33;;;;;;;;;;;20.00;53.90;;;;;;5107879;28;19940;-50
2023/10/30 09:17:00;;;;;;;;;;;20.00;53.90;;;;;;5092148;28;20290;-53
2023/10/30 09:19:28;;;;;;;;;;;20.00;53.90;;;;;;5087799;28;19989;-54
2023/10/30 09:21:54;;;;;;;;;;;20.00;53.90;;;;;;5094872;28;19931;-51
2023/10/30 09:24:21;;;;;;;;;;;20.00;53.90;;;;;;5085980;28;19924;-55
2023/10/30 09:26:48;;;;;;;;;;;20.00;53.90;;;;;;5088841;28;19927;-58
2023/10/30 09:29:15;;;;;;;;;;;20.00;53.90;;;;;;5089253;28;19957;-49
2023/10/30 09:31:43;;;;;;;;;;;20.10;54.00;;;;;;5105464;28;19928;-54
2023/10/30 09:34:10;;;;;;;;;;;20.10;53.90;;;;;;5093447;28;20018;-50
2023/10/30 09:36:38;;;;;;;;;;;20.10;53.90;;;;;;5089006;28;19924;-56
2023/10/30 09:39:05;;;;;;;;;;;20.10;53.90;;;;;;5081545;28;19936;-60
2023/10/30 09:41:31;;;;;;;;;;;20.10;53.90;;;;;;5084952;28;19977;-60
2023/10/30 09:43:58;;;;;;;;;;;20.20;54.00;;;;;;5085519;28;19934;-61
2023/10/30 09:46:25;;;;;;;;;;;20.20;54.00;;;;;;5080848;28;19984;-60
2023/10/30 09:48:52;;;;;;;;;;;20.10;53.90;;;;;;5089646;28;19997;-61
2023/10/30 09:51:19;;;;;;;;;;;20.10;53.80;;;;;;5080079;28;19927;-59
2023/10/30 09:53:47;;;;;;;;;;;20.10;53.80;;;;;;5101635;28;20369;-59
2023/10/30 09:56:14;;;;;;;;;;;20.20;53.90;;;;;;5088534;28;19973;-60
2023/10/30 09:58:41;;;;;;;;;;;20.10;53.80;;;;;;5083708;28;19928;-58
2023/10/30 10:01:08;;;;;;;;;;;20.10;53.80;;;;;;5103691;28;19950;-59
2023/10/30 10:03:35;;;;;;;;;;;20.20;53.80;;;;;;5105383;28;19931;-58
2023/10/30 10:06:01;;;;;;;;;;;20.10;53.80;;;;;;5084555;28;19931;-57
2023/10/30 10:08:28;;;;;;;;;;;20.10;53.80;;;;;;5086492;28;20092;-57
2023/10/30 10:10:56;;;;;;;;;;;20.10;53.80;;;;;;5102363;28;19980;-62
2023/10/30 10:13:23;;;;;;;;;;;20.10;53.70;;;;;;5086024;28;19961;-58
2023/10/30 10:15:50;;;;;;;;;;;20.10;53.80;;;;;;5106154;28;19950;-59
2023/10/30 10:18:23;;;;;;;;;;;20.10;53.70;;;;;;5106153;28;19952;-60
2023/10/30 10:20:55;;;;;;;;;;;20.10;53.70;;;;;;5087468;28;19928;-57
2023/10/30 10:23:21;;;;;;;;;;;20.10;53.70;;;;;;5081849;28;20003;-61
2023/10/30 10:25:52;;;;;;;;;;;20.10;53.70;;;;;;5108675;28;19924;-58
2023/10/30 10:28:21;;;;;;;;;;;20.10;53.70;;;;;;5089701;28;19985;-57
2023/10/30 10:30:48;;;;;;;;;;;20.10;53.70;;;;;;5084976;28;19962;-57
2023/10/30 10:33:15;;;;;;;;;;;20.10;53.70;;;;;;5079042;28;19942;-62
2023/10/30 10:35:42;;;;;;;;;;;20.10;53.70;;;;;;5088633;28;19985;-58
2023/10/30 10:38:09;;;;;;;;;;;20.10;53.70;;;;;;5112616;28;19950;-59
2023/10/30 10:40:36;;;;;;;;;;;20.10;53.70;;;;;;5088397;28;19924;-58
2023/10/30 10:43:03;;;;;;;;;;;20.10;53.70;;;;;;5088482;28;20030;-58
2023/10/30 10:45:31;;;;;;;;;;;20.20;53.80;;;;;;5087419;28;19924;-58
2023/10/30 10:47:58;;;;;;;;;;;20.10;53.70;;;;;;5091637;28;19977;-60
2023/10/30 10:50:24;;;;;;;;;;;20.10;53.70;;;;;;5091542;28;19931;-58
2023/10/30 10:52:53;;;;;;;;;;;20.20;53.80;;;;;;5082577;28;19974;-58
2023/10/30 10:55:20;;;;;;;;;;;20.20;53.80;;;;;;5088965;28;19924;-59
2023/10/30 10:57:48;;;;;;;;;;;20.10;53.60;;;;;;5091275;28;19930;-57
2023/10/30 11:00:15;;;;;;;;;;;20.10;53.60;;;;;;5084160;28;19923;-57
2023/10/30 11:02:44;;;;;;;;;;;20.10;53.60;;;;;;5088192;28;19998;-58
2023/10/30 11:05:11;;;;;;;;;;;20.20;53.70;;;;;;5086060;28;19939;-57
2023/10/30 11:07:39;;;;;;;;;;;20.20;53.70;;;;;;5085802;28;19963;-58
2023/10/30 11:10:09;;;;;;;;;;;20.20;53.70;;;;;;5110518;28;19923;-58
2023/10/30 11:12:39;;;;;;;;;;;20.20;53.70;;;;;;5101814;28;19931;-59
2023/10/30 11:15:08;;;;;;;;;;;20.20;53.70;;;;;;5090716;28;19931;-58
2023/10/30 11:17:35;;;;;;;;;;;20.20;53.70;;;;;;5078586;28;19928;-58
2023/10/30 11:20:03;;;;;;;;;;;20.20;53.70;;;;;;5098594;28;20007;-58
2023/10/30 11:22:37;;;;;;;;;;;20.20;53.70;;;;;;5094160;28;19927;-59
2023/10/30 11:25:04;;;;;;;;;;;20.20;53.70;;;;;;5085638;28;19927;-61
2023/10/30 11:27:37;;;;;;;;;;;20.20;53.70;;;;;;5082050;28;19923;-59
2023/10/30 11:30:05;;;;;;;;;;;20.20;53.70;;;;;;5108583;28;19939;-62
2023/10/30 11:32:32;;;;;;;;;;;20.20;53.70;;;;;;5090296;28;19932;-60
2023/10/30 11:35:00;;;;;;;;;;;20.20;53.70;;;;;;5108772;28;20376;-60
2023/10/30 11:37:29;;;;;;;;;;;20.20;53.70;;;;;;5103340;28;19924;-59
2023/10/30 11:39:56;;;;;;;;;;;20.10;53.60;;;;;;5093718;28;20066;-65
2023/10/30 11:42:32;;;;;;;;;;;20.20;53.70;;;;;;5102110;27;19924;-60
2023/10/30 11:45:16;;;;;;;;;;;20.20;53.70;;;;;;5088845;28;19951;-58
2023/10/30 11:47:44;;;;;;;;;;;20.20;53.70;;;;;;5103263;28;19955;-59
2023/10/30 11:50:10;;;;;;;;;;;20.20;53.70;;;;;;5082758;28;20016;-61
2023/10/30 11:52:39;;;;;;;;;;;20.20;53.70;;;;;;5081745;28;19924;-58
2023/10/30 11:55:06;;;;;;;;;;;20.20;53.70;;;;;;5101877;28;19924;-59
2023/10/30 11:57:33;;;;;;;;;;;20.20;53.70;;;;;;5100430;28;19927;-57
2023/10/30 12:00:00;;;;;;;;;;;20.20;53.70;;;;;;5084130;28;19928;-60
2023/10/30 12:02:27;;;;;;;;;;;20.20;53.70;;;;;;5083471;28;19981;-60
2023/10/30 12:04:54;;;;;;;;;;;20.20;53.70;;;;;;5080285;28;19973;-59
2023/10/30 12:07:21;;;;;;;;;;;20.20;54.30;;;;;;5100636;28;19931;-62
2023/10/30 12:09:50;;;;;;;;;;;20.20;53.70;;;;;;5087158;28;19928;-60
2023/10/30 12:12:17;;;;;;;;;;;20.20;53.70;;;;;;5093852;28;19942;-59
2023/10/30 12:14:44;;;;;;;;;;;20.20;53.70;;;;;;5106028;28;19932;-60
2023/10/30 12:17:11;;;;;;;;;;;20.20;53.70;;;;;;5106893;28;19985;-58
2023/10/30 12:19:38;;;;;;;;;;;20.20;53.70;;;;;;5086007;28;19924;-57
2023/10/30 12:22:05;;;;;;;;;;;20.20;53.70;;;;;;5096250;28;19932;-58
2023/10/30 12:24:31;;;;;;;;;;;20.20;53.70;;;;;;5088605;28;19939;-57
2023/10/30 12:27:00;;;;;;;;;;;20.20;53.70;;;;;;5085033;28;20339;-64
2023/10/30 12:29:26;;;;;;;;;;;20.20;53.70;;;;;;5077568;28;19969;-61
2023/10/30 12:32:03;;;;;;;;;;;20.20;53.70;;;;;;5100329;28;19955;-58
2023/10/30 12:34:30;;;;;;;;;;;20.20;53.70;;;;;;5089170;28;19971;-59
2023/10/30 12:36:57;;;;;;;;;;;20.20;53.70;;;;;;5079665;28;19950;-60
2023/10/30 12:39:26;;;;;;;;;;;20.20;53.70;;;;;;5087747;28;21292;-59
2023/10/30 12:41:55;;;;;;;;;;;20.20;53.70;;;;;;5083816;28;19928;-59
2023/10/30 12:44:26;;;;;;;;;;;20.30;53.70;;;;;;5107379;28;19935;-58
2023/10/30 12:46:52;;;;;;;;;;;20.30;53.70;;;;;;5103404;28;19927;-62
2023/10/30 12:49:19;;;;;;;;;;;20.30;53.70;;;;;;5090134;28;19988;-58
2023/10/30 12:51:46;;;;;;;;;;;20.30;53.70;;;;;;5103734;28;19924;-57
2023/10/30 12:54:13;;;;;;;;;;;20.30;53.70;;;;;;5107017;28;19932;-60
2023/10/30 12:56:40;;;;;;;;;;;20.30;53.70;;;;;;5096207;28;19958;-60
2023/10/30 12:59:07;;;;;;;;;;;20.30;53.70;;;;;;5106703;28;19946;-62
2023/10/30 13:01:35;;;;;;;;;;;20.30;53.70;;;;;;5096473;28;20293;-57
2023/10/30 13:04:02;;;;;;;;;;;20.30;53.70;;;;;;5099971;28;20034;-57
2023/10/30 13:06:29;;;;;;;;;;;20.30;53.70;;;;;;5084048;28;19939;-61
2023/10/30 13:08:55;;;;;;;;;;;20.30;53.70;;;;;;5088559;28;20254;-59
2023/10/30 13:11:22;;;;;;;;;;;20.30;53.70;;;;;;5085538;28;19932;-61
2023/10/30 13:13:49;;;;;;;;;;;20.30;53.70;;;;;;5088073;28;20003;-59
2023/10/30 13:16:16;;;;;;;;;;;20.30;53.70;;;;;;5098664;28;19932;-58
2023/10/30 13:18:44;;;;;;;;;;;20.30;53.70;;;;;;5085455;28;19940;-59
2023/10/30 13:21:11;;;;;;;;;;;20.30;53.70;;;;;;5106816;28;20408;-64
2023/10/30 13:23:37;;;;;;;;;;;20.30;53.70;;;;;;5084136;28;20272;-58
2023/10/30 13:26:05;;;;;;;;;;;20.40;53.80;;;;;;5101525;28;19933;-57
2023/10/30 13:28:32;;;;;;;;;;;20.30;53.70;;;;;;5089309;28;19931;-57
2023/10/30 13:30:59;;;;;;;;;;;20.30;53.70;;;;;;5092986;28;19924;-63
2023/10/30 13:33:26;;;;;;;;;;;20.30;53.70;;;;;;5084206;28;19924;-57
2023/10/30 13:35:54;;;;;;;;;;;20.30;53.70;;;;;;5076833;28;19935;-60
2023/10/30 13:38:21;;;;;;;;;;;20.30;53.70;;;;;;5086627;28;20447;-63
2023/10/30 13:40:51;;;;;;;;;;;20.30;53.70;;;;;;5085377;28;20259;-61
2023/10/30 13:43:18;;;;;;;;;;;20.40;53.70;;;;;;5087517;28;19977;-59
2023/10/30 13:45:44;;;;;;;;;;;20.30;53.60;;;;;;5080614;28;19930;-62
2023/10/30 13:48:11;;;;;;;;;;;20.30;53.60;;;;;;5091917;28;19965;-60
2023/10/30 13:50:38;;;;;;;;;;;20.30;53.60;;;;;;5089040;28;19928;-60
2023/10/30 13:53:06;;;;;;;;;;;20.30;53.60;;;;;;5088374;28;19970;-61
2023/10/30 13:55:33;;;;;;;;;;;20.30;53.60;;;;;;5083883;28;19924;-60
2023/10/30 13:57:59;;;;;;;;;;;20.30;53.70;;;;;;5089164;28;19969;-59
2023/10/30 14:00:30;;;;;;;;;;;20.40;53.70;;;;;;5093647;28;19923;-60
2023/10/30 14:02:57;;;;;;;;;;;20.30;53.70;;;;;;5084573;28;19928;-58
2023/10/30 14:05:24;;;;;;;;;;;20.30;53.60;;;;;;5086862;28;19924;-64
2023/10/30 14:07:50;;;;;;;;;;;20.30;53.60;;;;;;5088593;28;19924;-57
2023/10/30 14:10:19;;;;;;;;;;;20.40;53.70;;;;;;5090045;28;19991;-62
2023/10/30 14:12:45;;;;;;;;;;;20.30;53.60;;;;;;5086326;28;19924;-62
2023/10/30 14:15:12;;;;;;;;;;;20.40;53.70;;;;;;5091220;28;19934;-57